Canyon de Chelly National Mo, Arizona
Current Conditions -  °F | °C
As of 10:53 PM on Wednesday 28 Jan 2015 (Local Time) from KRQE Reporting Station
Clear Clear  
Wind Chill: 30°   Ceiling: Unl
Heat Index: 34°   Visibility: 10mi
Dew Point: 28°   Wind: 5mph
Humidity: 79%   Direction: 210°SSW
Pressure: 30.3"   Gusts: NA
Location:  36.1012°N, 109.584°W
Report Text: KRQE 290553Z AUTO 21004KT 10SM CLR 01/M02 A3030 RMK AO2 SLP221 T00111022 10122 20000 51007 TSNO
Loading
Personal Weather Stations






























Interactive Weather Map New forecast layout! Learn more

10-Day Weather Forecast

Advertisements
Track Severe Weather on mobile